Terminal Aerodrome Forecast
Issued by NWS

Home | Current Version | Previous Version | Text Only | Print | Product List | Glossary Off
Versions: 1 2 3 4 5 6 7 8 9 10 11 12 13 14

000
FTUS43 KICT 241720
TAFCNU
TAF
KCNU 241720Z 2418/2518 29008KT P6SM SKC
     FM242000 26013G19KT P6SM SKC
     FM250000 26011KT P6SM BKN100
     FM250800 30011KT P6SM BKN100
     FM251500 32020G26KT P6SM OVC050=

USA.gov is the U.S. government's official web portal to all federal, state and local government web resources and services.